Time;durP1;ratioP1;P1;durP2;ratioP2;P2;SDS_P1;SDS_P2;PMS_P1;PMS_P2;Temp;Humidity;BMP_temperature;BMP_pressure;BME280_temperature;BME280_humidity;BME280_pressure;Samples;Min_cycle;Max_cycle;Signal;HPM_P1;HPM_P2
2023/04/20 00:02:01;;;;;;;2.53;1.97;;;8.20;99.90;;;;;;5052482;28;20235;-62
2023/04/20 00:04:28;;;;;;;8.93;2.40;;;8.20;99.90;;;;;;5022307;28;20219;-62
2023/04/20 00:06:57;;;;;;;4.93;2.10;;;8.20;99.90;;;;;;5056180;28;20199;-62
2023/04/20 00:09:24;;;;;;;3.23;2.20;;;8.20;99.90;;;;;;5047916;28;20586;-62
2023/04/20 00:11:51;;;;;;;2.13;1.70;;;8.20;99.90;;;;;;5055610;28;20393;-62
2023/04/20 00:14:19;;;;;;;4.07;2.10;;;8.20;99.90;;;;;;5059878;28;20196;-62
2023/04/20 00:16:46;;;;;;;2.00;1.80;;;8.20;99.90;;;;;;5045064;28;20791;-62
2023/04/20 00:19:13;;;;;;;4.67;2.20;;;8.10;99.90;;;;;;5032262;28;20220;-62
2023/04/20 00:21:40;;;;;;;2.83;2.30;;;8.10;99.90;;;;;;5054349;28;20377;-62
2023/04/20 00:24:07;;;;;;;3.53;2.20;;;8.00;99.90;;;;;;5061095;28;20200;-62
2023/04/20 00:26:34;;;;;;;2.63;2.03;;;7.90;99.90;;;;;;5044549;28;20683;-63
2023/04/20 00:29:01;;;;;;;6.07;2.27;;;7.90;99.90;;;;;;5057469;28;20582;-62
2023/04/20 00:31:30;;;;;;;4.50;2.33;;;7.90;99.90;;;;;;5047747;28;20566;-62
2023/04/20 00:33:57;;;;;;;3.40;2.47;;;7.80;99.90;;;;;;5025982;28;20573;-62
2023/04/20 00:36:25;;;;;;;4.27;2.07;;;7.80;99.90;;;;;;5061123;28;20200;-62
2023/04/20 00:38:52;;;;;;;4.53;2.20;;;7.70;99.90;;;;;;5054293;28;20289;-62
2023/04/20 00:41:19;;;;;;;5.83;2.40;;;7.70;99.90;;;;;;5039426;28;20231;-62
2023/04/20 00:43:52;;;;;;;5.13;2.43;;;7.70;99.90;;;;;;5046986;28;20941;-63
2023/04/20 00:46:19;;;;;;;4.17;2.17;;;7.60;99.90;;;;;;5056303;28;20780;-62
2023/04/20 00:48:49;;;;;;;6.13;2.10;;;7.70;99.90;;;;;;5044724;28;20345;-62
2023/04/20 00:51:16;;;;;;;5.07;2.50;;;7.70;99.90;;;;;;5026641;28;20219;-62
2023/04/20 00:53:44;;;;;;;4.00;2.00;;;7.70;99.90;;;;;;5056915;28;20909;-63
2023/04/20 00:56:12;;;;;;;4.80;2.17;;;7.70;99.90;;;;;;5057768;28;20341;-62
2023/04/20 00:58:39;;;;;;;4.73;2.43;;;7.70;99.90;;;;;;5045347;28;20440;-62
2023/04/20 01:01:06;;;;;;;2.60;2.07;;;7.50;99.90;;;;;;5057414;28;20208;-62
2023/04/20 01:03:33;;;;;;;5.07;2.40;;;7.60;99.90;;;;;;5048857;28;20204;-62
2023/04/20 01:06:02;;;;;;;4.73;2.07;;;7.50;99.90;;;;;;5028824;28;20304;-62
2023/04/20 01:08:30;;;;;;;5.20;2.27;;;7.50;99.90;;;;;;5055774;28;20207;-63
2023/04/20 01:10:56;;;;;;;3.10;2.20;;;7.40;99.90;;;;;;5061795;28;20763;-62
2023/04/20 01:13:23;;;;;;;2.67;2.07;;;7.30;99.90;;;;;;5046285;28;20204;-62
2023/04/20 01:15:50;;;;;;;5.80;2.23;;;7.20;99.90;;;;;;5057608;28;20701;-63
2023/04/20 01:18:17;;;;;;;8.23;2.50;;;7.10;99.90;;;;;;5048336;28;20197;-62
2023/04/20 01:20:45;;;;;;;4.57;2.40;;;7.00;99.90;;;;;;5016866;28;25078;-62
2023/04/20 01:23:14;;;;;;;3.37;2.20;;;7.00;99.90;;;;;;5057645;28;20313;-62
2023/04/20 01:25:41;;;;;;;5.47;2.70;;;7.00;99.90;;;;;;5055605;28;20397;-62
2023/04/20 01:28:08;;;;;;;5.13;2.63;;;6.90;1.00;;;;;;5044699;28;20203;-62
2023/04/20 01:30:35;;;;;;;4.07;2.50;;;6.80;99.90;;;;;;5046802;28;20839;-62
2023/04/20 01:33:02;;;;;;;2.70;2.10;;;6.90;99.90;;;;;;5059425;28;20200;-62
2023/04/20 01:35:28;;;;;;;2.63;2.07;;;6.80;1.00;;;;;;5013420;28;20211;-63
2023/04/20 01:37:55;;;;;;;4.17;2.40;;;6.70;99.90;;;;;;5054131;28;20200;-62
2023/04/20 01:40:23;;;;;;;3.33;2.27;;;6.70;99.90;;;;;;5058750;28;20197;-62
2023/04/20 01:42:50;;;;;;;3.47;2.53;;;6.80;56.20;;;;;;5042700;28;20715;-62
2023/04/20 01:45:17;;;;;;;3.40;2.30;;;6.80;24.20;;;;;;5059634;28;20193;-62
2023/04/20 01:47:44;;;;;;;7.07;2.37;;;7.00;1.00;;;;;;5060840;28;20704;-62
2023/04/20 01:50:11;;;;;;;3.63;2.37;;;7.10;1.00;;;;;;5043364;28;20508;-63
2023/04/20 01:52:37;;;;;;;4.53;2.20;;;7.20;99.90;;;;;;5025345;28;20621;-62
2023/04/20 01:55:05;;;;;;;2.53;2.00;;;7.30;99.90;;;;;;5056653;28;20377;-62
2023/04/20 01:57:33;;;;;;;4.10;2.40;;;7.40;99.90;;;;;;5060460;28;21917;-62
2023/04/20 02:00:00;;;;;;;7.47;2.10;;;7.40;99.90;;;;;;5042651;28;20432;-62
2023/04/20 02:02:27;;;;;;;4.93;2.07;;;7.40;99.90;;;;;;5056922;28;20227;-62
2023/04/20 02:04:53;;;;;;;5.57;2.20;;;7.40;99.90;;;;;;5041169;28;20674;-63
2023/04/20 02:07:20;;;;;;;3.40;2.53;;;7.40;1.00;;;;;;5023067;28;20204;-62
2023/04/20 02:09:47;;;;;;;2.73;2.37;;;7.40;1.00;;;;;;5045764;28;20908;-62
2023/04/20 02:12:14;;;;;;;4.53;2.33;;;7.40;13.40;;;;;;5047681;28;20666;-62
2023/04/20 02:14:42;;;;;;;3.90;2.40;;;7.30;78.00;;;;;;5044268;28;20207;-63
2023/04/20 02:17:09;;;;;;;4.40;2.57;;;7.30;1.00;;;;;;5054043;28;20322;-62
2023/04/20 02:19:36;;;;;;;2.33;2.13;;;7.30;1.00;;;;;;5056060;28;20733;-63
2023/04/20 02:22:03;;;;;;;6.97;2.23;;;7.30;99.90;;;;;;5018876;28;20814;-62
2023/04/20 02:24:30;;;;;;;13.20;2.20;;;7.40;1.00;;;;;;5050815;28;20541;-62
2023/04/20 02:26:57;;;;;;;6.03;2.63;;;7.40;15.40;;;;;;5056646;28;20200;-62
2023/04/20 02:29:24;;;;;;;5.03;2.63;;;7.40;24.80;;;;;;5051075;28;20281;-62
2023/04/20 02:31:52;;;;;;;6.47;2.60;;;7.40;1.00;;;;;;5050416;28;20193;-62
2023/04/20 02:34:19;;;;;;;5.87;2.50;;;7.40;31.50;;;;;;5059710;28;20554;-62
2023/04/20 02:36:46;;;;;;;6.93;2.40;;;7.40;99.90;;;;;;5043580;28;20510;-62
2023/04/20 02:39:13;;;;;;;3.20;2.37;;;7.30;99.90;;;;;;5030817;28;20306;-62
2023/04/20 02:41:39;;;;;;;6.33;2.93;;;7.40;27.30;;;;;;5059560;28;20220;-62
2023/04/20 02:44:06;;;;;;;3.57;2.20;;;7.40;99.90;;;;;;5056168;28;20408;-62
2023/04/20 02:46:33;;;;;;;2.97;2.10;;;7.40;99.90;;;;;;5046571;28;20212;-62
2023/04/20 02:49:02;;;;;;;6.43;2.40;;;7.40;1.00;;;;;;5056615;28;20316;-62
2023/04/20 02:51:29;;;;;;;2.83;2.27;;;7.40;1.00;;;;;;5056064;28;20581;-62
2023/04/20 02:53:55;;;;;;;3.17;2.00;;;7.40;1.00;;;;;;5009251;28;20340;-62
2023/04/20 02:56:22;;;;;;;2.17;1.93;;;7.40;1.00;;;;;;5059355;28;20641;-62
2023/04/20 02:58:51;;;;;;;4.77;2.10;;;7.40;99.90;;;;;;5051592;28;20794;-62
2023/04/20 03:01:18;;;;;;;5.27;2.20;;;7.40;99.90;;;;;;5046060;28;20200;-62
2023/04/20 03:03:44;;;;;;;2.60;2.07;;;7.50;99.90;;;;;;5056778;28;20228;-62
2023/04/20 03:06:12;;;;;;;2.87;2.00;;;7.40;1.00;;;;;;5057784;28;20204;-62
2023/04/20 03:08:39;;;;;;;3.67;2.20;;;7.40;1.00;;;;;;5024527;28;20211;-62
2023/04/20 03:11:06;;;;;;;2.83;2.00;;;7.40;99.90;;;;;;5056323;28;20203;-62
2023/04/20 03:13:33;;;;;;;8.43;2.00;;;7.40;1.00;;;;;;5063220;28;20200;-62
2023/04/20 03:15:59;;;;;;;4.37;2.33;;;7.40;1.00;;;;;;5042668;28;20192;-62
2023/04/20 03:18:26;;;;;;;3.80;1.90;;;7.40;1.00;;;;;;5058656;28;20199;-62
2023/04/20 03:20:53;;;;;;;4.27;2.30;;;7.30;1.00;;;;;;5051105;28;20451;-62
2023/04/20 03:23:21;;;;;;;5.27;2.40;;;7.30;1.00;;;;;;5055230;28;20235;-62
2023/04/20 03:25:48;;;;;;;4.00;2.43;;;7.30;99.90;;;;;;5019369;28;20214;-63
2023/04/20 03:28:15;;;;;;;3.70;2.00;;;7.20;1.00;;;;;;5054886;28;20206;-63
2023/04/20 03:30:42;;;;;;;2.87;2.10;;;7.20;1.00;;;;;;5050350;28;20617;-62
2023/04/20 03:33:09;;;;;;;5.57;2.23;;;7.20;99.90;;;;;;5039459;28;20406;-62
2023/04/20 03:35:38;;;;;;;6.47;2.63;;;7.10;1.00;;;;;;5053389;28;20676;-62
2023/04/20 03:38:05;;;;;;;5.13;2.70;;;7.10;99.90;;;;;;5048990;28;20204;-62
2023/04/20 03:40:33;;;;;;;3.23;2.33;;;7.10;99.90;;;;;;5018825;28;20748;-62
2023/04/20 03:43:00;;;;;;;3.80;2.00;;;7.10;99.90;;;;;;5044594;28;20332;-62
2023/04/20 03:45:27;;;;;;;5.63;2.00;;;7.10;34.10;;;;;;5049288;28;20324;-62
2023/04/20 03:47:53;;;;;;;3.97;2.00;;;7.10;99.90;;;;;;5033798;28;20879;-62
2023/04/20 03:50:20;;;;;;;5.07;2.23;;;7.10;1.00;;;;;;5049768;28;20206;-62
2023/04/20 03:52:47;;;;;;;5.13;2.40;;;7.00;1.00;;;;;;5052196;28;20215;-62
2023/04/20 03:55:14;;;;;;;3.83;2.47;;;7.10;1.00;;;;;;5011207;28;21707;-62
2023/04/20 03:57:42;;;;;;;4.87;2.40;;;7.10;1.00;;;;;;5056944;28;20563;-62
2023/04/20 04:00:11;;;;;;;3.17;2.43;;;7.10;99.90;;;;;;5050539;28;20200;-62
2023/04/20 04:02:38;;;;;;;6.60;2.50;;;7.00;99.90;;;;;;5038599;28;20246;-62
2023/04/20 04:05:05;;;;;;;3.53;2.17;;;7.00;1.00;;;;;;5050889;28;20199;-62
2023/04/20 04:07:32;;;;;;;3.17;2.13;;;6.90;1.00;;;;;;5057755;28;20400;-62
2023/04/20 04:09:59;;;;;;;4.27;2.67;;;7.00;99.90;;;;;;5044513;28;20196;-62
2023/04/20 04:12:25;;;;;;;7.10;2.13;;;7.00;99.90;;;;;;5041007;28;20500;-62
2023/04/20 04:14:54;;;;;;;5.40;2.53;;;6.90;1.00;;;;;;5059496;28;20203;-62
2023/04/20 04:17:20;;;;;;;3.03;2.13;;;6.90;99.90;;;;;;5042736;28;22969;-62
2023/04/20 04:19:47;;;;;;;6.37;2.40;;;6.90;1.00;;;;;;5060887;28;20192;-62
2023/04/20 04:22:14;;;;;;;4.83;2.73;;;6.90;1.00;;;;;;5054123;28;20231;-62
2023/04/20 04:24:41;;;;;;;3.53;2.40;;;6.90;99.90;;;;;;5062043;28;20196;-62
2023/04/20 04:27:08;;;;;;;6.07;2.37;;;6.90;1.00;;;;;;5013862;28;20228;-62
2023/04/20 04:29:37;;;;;;;3.20;2.20;;;6.90;1.00;;;;;;5062071;28;20302;-62
2023/04/20 04:32:06;;;;;;;4.33;2.17;;;6.90;1.00;;;;;;5051075;28;20314;-62
2023/04/20 04:34:33;;;;;;;5.87;2.40;;;6.90;1.00;;;;;;5053244;28;20206;-62
2023/04/20 04:37:00;;;;;;;3.43;2.03;;;6.90;1.00;;;;;;5062574;28;20300;-62
2023/04/20 04:39:27;;;;;;;4.83;2.20;;;6.90;1.00;;;;;;5058733;28;20233;-62
2023/04/20 04:41:54;;;;;;;3.57;2.00;;;6.90;1.00;;;;;;5030945;28;20220;-62
2023/04/20 04:44:21;;;;;;;3.27;2.20;;;6.90;1.00;;;;;;5045424;28;20806;-62
2023/04/20 04:46:48;;;;;;;2.97;2.20;;;6.70;99.90;;;;;;5040620;28;20400;-62
2023/04/20 04:49:17;;;;;;;4.53;2.37;;;6.60;1.00;;;;;;5036370;28;20204;-62
2023/04/20 04:51:44;;;;;;;8.33;2.63;;;6.60;1.00;;;;;;5044547;28;20582;-62
2023/04/20 04:54:11;;;;;;;5.90;2.60;;;6.50;1.00;;;;;;5059554;28;20624;-62
2023/04/20 04:56:38;;;;;;;6.90;2.70;;;6.50;1.00;;;;;;5020034;28;20641;-63
2023/04/20 04:59:04;;;;;;;2.90;2.60;;;6.50;1.00;;;;;;5060489;28;20201;-62
2023/04/20 05:01:31;;;;;;;5.97;2.83;;;6.50;1.00;;;;;;5053775;28;20204;-63
2023/04/20 05:03:58;;;;;;;4.07;2.40;;;6.50;1.00;;;;;;5033507;28;20826;-63
2023/04/20 05:06:26;;;;;;;4.57;2.50;;;6.40;1.00;;;;;;5037418;28;22027;-62
2023/04/20 05:08:53;;;;;;;4.77;2.73;;;6.30;1.00;;;;;;5052576;28;20239;-63
2023/04/20 05:11:20;;;;;;;7.40;2.73;;;6.30;1.00;;;;;;5023775;28;20659;-63
2023/04/20 05:13:47;;;;;;;4.87;3.03;;;6.40;1.00;;;;;;5030617;28;20438;-63
2023/04/20 05:16:14;;;;;;;4.53;2.60;;;6.20;15.90;;;;;;5028062;28;20380;-63
2023/04/20 05:18:40;;;;;;;6.50;2.90;;;6.20;23.90;;;;;;5052703;28;20223;-63
2023/04/20 05:21:07;;;;;;;8.77;2.80;;;6.20;31.70;;;;;;5047051;28;20238;-62
2023/04/20 05:23:35;;;;;;;5.57;2.80;;;6.20;31.90;;;;;;5057326;28;20429;-62
2023/04/20 05:26:02;;;;;;;4.93;2.87;;;6.20;31.40;;;;;;5064165;28;20215;-62
2023/04/20 05:28:29;;;;;;;6.10;2.70;;;6.20;40.30;;;;;;5023661;28;20212;-63
2023/04/20 05:30:56;;;;;;;8.20;3.23;;;6.20;47.00;;;;;;5048608;28;20207;-63
2023/04/20 05:33:22;;;;;;;12.53;3.30;;;6.10;53.40;;;;;;5047265;28;20197;-63
2023/04/20 05:35:50;;;;;;;4.97;3.10;;;6.10;60.10;;;;;;5040414;28;20861;-63
2023/04/20 05:38:17;;;;;;;5.17;2.87;;;6.20;65.20;;;;;;5056452;28;20223;-63
2023/04/20 05:40:45;;;;;;;3.97;2.83;;;6.20;70.20;;;;;;5056681;28;20220;-63
2023/04/20 05:43:12;;;;;;;8.20;3.40;;;6.10;71.00;;;;;;5058060;28;20220;-63
2023/04/20 05:45:38;;;;;;;4.90;2.87;;;6.10;75.20;;;;;;5034342;28;20239;-63
2023/04/20 05:48:06;;;;;;;10.87;3.30;;;6.10;79.80;;;;;;5062012;28;20222;-63
2023/04/20 05:50:32;;;;;;;7.63;2.50;;;6.10;83.80;;;;;;5047323;28;20791;-63
2023/04/20 05:52:59;;;;;;;6.23;3.30;;;6.10;86.60;;;;;;5040586;28;20240;-63
2023/04/20 05:55:26;;;;;;;9.00;3.50;;;6.10;89.20;;;;;;5051742;28;20591;-63
2023/04/20 05:57:54;;;;;;;4.70;2.53;;;6.10;90.80;;;;;;5054928;28;20191;-63
2023/04/20 06:00:22;;;;;;;7.13;2.90;;;6.00;90.90;;;;;;5019265;28;20216;-63
2023/04/20 06:02:49;;;;;;;6.80;3.27;;;6.00;91.00;;;;;;5057234;28;20319;-63
2023/04/20 06:05:15;;;;;;;5.90;3.30;;;6.00;91.40;;;;;;5055012;28;20204;-63
2023/04/20 06:07:42;;;;;;;9.40;3.80;;;6.00;92.70;;;;;;5026065;28;20756;-63
2023/04/20 06:10:10;;;;;;;7.17;3.33;;;6.00;93.80;;;;;;5051965;28;20724;-63
2023/04/20 06:12:37;;;;;;;5.93;3.23;;;6.00;95.00;;;;;;5042645;28;20722;-63
2023/04/20 06:15:08;;;;;;;7.93;3.60;;;6.00;96.20;;;;;;5020384;28;20211;-63
2023/04/20 06:17:36;;;;;;;7.43;3.63;;;6.20;96.80;;;;;;5046461;28;20207;-63
2023/04/20 06:20:04;;;;;;;7.00;3.53;;;6.20;96.80;;;;;;5051416;28;20203;-63
2023/04/20 06:22:30;;;;;;;7.10;3.30;;;6.20;96.30;;;;;;5033826;28;20228;-63
2023/04/20 06:24:57;;;;;;;5.13;3.40;;;6.10;96.50;;;;;;5051633;28;20231;-63
2023/04/20 06:27:24;;;;;;;6.23;3.60;;;6.10;96.80;;;;;;5042429;28;20213;-63
2023/04/20 06:29:52;;;;;;;9.33;4.10;;;6.20;98.20;;;;;;5018706;28;20238;-63
2023/04/20 06:32:20;;;;;;;8.03;3.73;;;6.20;98.80;;;;;;5049995;28;20204;-63
2023/04/20 06:34:47;;;;;;;9.57;4.07;;;6.20;98.90;;;;;;5046608;28;20206;-63
2023/04/20 06:37:13;;;;;;;6.10;3.57;;;6.20;98.00;;;;;;5049721;28;20672;-63
2023/04/20 06:39:40;;;;;;;11.07;3.90;;;6.20;98.40;;;;;;5039063;28;20208;-63
2023/04/20 06:42:07;;;;;;;10.77;4.33;;;6.20;99.20;;;;;;5049239;28;20204;-63
2023/04/20 06:44:34;;;;;;;9.47;3.70;;;6.20;99.40;;;;;;5003741;28;20569;-63
2023/04/20 06:47:01;;;;;;;14.60;3.80;;;6.20;99.20;;;;;;5046501;28;20230;-63
2023/04/20 06:49:29;;;;;;;4.97;3.40;;;6.30;99.50;;;;;;5046804;28;20285;-63
2023/04/20 06:51:56;;;;;;;5.63;3.67;;;6.20;98.50;;;;;;5048324;28;20581;-64
2023/04/20 06:54:23;;;;;;;8.77;4.33;;;6.20;99.60;;;;;;5037201;28;20205;-64
2023/04/20 06:56:49;;;;;;;10.80;3.80;;;6.30;99.90;;;;;;5054909;28;20705;-63
2023/04/20 06:59:17;;;;;;;5.53;3.60;;;6.30;99.90;;;;;;5055660;28;20223;-65
2023/04/20 07:01:44;;;;;;;6.27;3.80;;;6.30;99.90;;;;;;5018142;28;20228;-63
2023/04/20 07:04:11;;;;;;;11.77;4.53;;;6.30;99.90;;;;;;5050442;28;20227;-63
2023/04/20 07:06:39;;;;;;;11.87;4.27;;;6.40;99.90;;;;;;5055704;28;20279;-63
2023/04/20 07:09:07;;;;;;;8.53;3.63;;;6.40;99.90;;;;;;5045471;28;20853;-63
2023/04/20 07:11:34;;;;;;;10.77;3.80;;;6.40;99.90;;;;;;5052939;28;20196;-63
2023/04/20 07:14:01;;;;;;;10.40;4.10;;;6.40;99.90;;;;;;5048993;28;20403;-63
2023/04/20 07:16:27;;;;;;;9.30;4.03;;;6.40;99.90;;;;;;5020361;28;20602;-63
2023/04/20 07:18:54;;;;;;;9.33;4.33;;;6.50;99.90;;;;;;5049679;28;20208;-63
2023/04/20 07:21:21;;;;;;;8.63;4.07;;;6.50;99.90;;;;;;5061803;28;20343;-63
2023/04/20 07:23:49;;;;;;;5.23;3.53;;;6.60;99.90;;;;;;5052647;28;20246;-63
2023/04/20 07:26:16;;;;;;;6.03;3.70;;;6.50;99.90;;;;;;5056914;28;20750;-63
2023/04/20 07:28:43;;;;;;;5.47;3.63;;;6.60;99.90;;;;;;5059317;28;20235;-63
2023/04/20 07:31:09;;;;;;;7.27;4.30;;;6.60;99.90;;;;;;5006479;28;20370;-63
2023/04/20 07:33:36;;;;;;;13.00;4.30;;;6.70;99.90;;;;;;5054047;28;20198;-63
2023/04/20 07:36:05;;;;;;;8.47;4.43;;;6.80;99.90;;;;;;5043440;28;20901;-63
2023/04/20 07:38:31;;;;;;;8.27;4.27;;;6.80;99.90;;;;;;5059701;28;20199;-63
2023/04/20 07:41:00;;;;;;;10.03;4.30;;;6.80;99.90;;;;;;5040526;28;20626;-63
2023/04/20 07:43:27;;;;;;;7.67;4.13;;;6.80;99.90;;;;;;5051236;28;20728;-63
2023/04/20 07:45:54;;;;;;;8.57;4.13;;;6.80;99.90;;;;;;5044345;28;20759;-63
2023/04/20 07:48:20;;;;;;;7.17;4.10;;;6.90;99.90;;;;;;5019588;28;20560;-63
2023/04/20 07:50:47;;;;;;;8.23;5.37;;;6.90;99.90;;;;;;5049524;28;20200;-63
2023/04/20 07:53:14;;;;;;;14.20;4.70;;;6.90;99.90;;;;;;5057923;28;20192;-64
2023/04/20 07:55:41;;;;;;;8.77;4.50;;;7.00;99.90;;;;;;5043176;28;20402;-64
2023/04/20 07:58:09;;;;;;;8.63;4.67;;;6.90;99.90;;;;;;5056548;28;21037;-63
2023/04/20 08:00:36;;;;;;;8.53;4.83;;;7.00;99.90;;;;;;5060173;28;20675;-64
2023/04/20 08:03:03;;;;;;;8.43;4.50;;;7.00;99.90;;;;;;5014895;28;21049;-64
2023/04/20 08:05:29;;;;;;;9.77;5.17;;;7.10;99.90;;;;;;5060981;28;20231;-64
2023/04/20 08:07:57;;;;;;;10.40;4.80;;;7.20;99.90;;;;;;5056152;28;20200;-64
2023/04/20 08:10:24;;;;;;;13.27;5.30;;;7.20;99.90;;;;;;5050554;28;20272;-64
2023/04/20 08:12:52;;;;;;;8.97;4.43;;;7.20;99.90;;;;;;5048592;28;20200;-64
2023/04/20 08:15:20;;;;;;;11.07;4.27;;;7.20;99.90;;;;;;5055666;28;20224;-63
2023/04/20 08:17:47;;;;;;;7.13;4.20;;;7.20;99.90;;;;;;5029277;28;20575;-64
2023/04/20 08:20:14;;;;;;;10.00;4.63;;;7.20;99.90;;;;;;5051024;28;20399;-63
2023/04/20 08:22:40;;;;;;;9.33;4.40;;;7.20;99.90;;;;;;5062039;28;20236;-64
2023/04/20 08:25:08;;;;;;;12.73;4.40;;;7.20;99.90;;;;;;5056602;28;20251;-64
2023/04/20 08:27:35;;;;;;;6.13;4.33;;;7.20;99.90;;;;;;5047591;28;20200;-64
2023/04/20 08:30:03;;;;;;;7.20;4.40;;;7.20;99.90;;;;;;5059352;28;20303;-64
2023/04/20 08:32:31;;;;;;;6.87;4.37;;;7.30;99.90;;;;;;5053407;28;20684;-64
2023/04/20 08:34:58;;;;;;;9.60;5.17;;;7.30;99.90;;;;;;5022178;28;20672;-64
2023/04/20 08:37:25;;;;;;;8.57;5.10;;;7.30;99.90;;;;;;5059074;28;20200;-63
2023/04/20 08:39:52;;;;;;;6.80;4.33;;;7.20;99.90;;;;;;5058286;28;20250;-63
2023/04/20 08:42:19;;;;;;;9.90;4.60;;;7.20;99.90;;;;;;5046705;28;20201;-63
2023/04/20 08:44:46;;;;;;;7.50;4.33;;;7.10;99.90;;;;;;5061579;28;20231;-64
2023/04/20 08:47:14;;;;;;;7.90;4.63;;;7.10;99.90;;;;;;5055022;28;20640;-64
2023/04/20 08:49:44;;;;;;;8.83;4.60;;;7.20;99.90;;;;;;5031269;28;20236;-64
2023/04/20 08:52:12;;;;;;;8.73;5.30;;;7.20;99.90;;;;;;5058992;28;20388;-63
2023/04/20 08:54:38;;;;;;;8.73;4.93;;;7.20;99.90;;;;;;5061105;28;20920;-63
2023/04/20 08:57:05;;;;;;;10.73;5.70;;;7.20;99.90;;;;;;5044593;28;20468;-63
2023/04/20 08:59:32;;;;;;;7.13;4.63;;;7.20;99.90;;;;;;5063256;28;20197;-63
2023/04/20 09:02:09;;;;;;;12.93;5.83;;;7.10;99.90;;;;;;5057011;28;20224;-64
2023/04/20 09:04:36;;;;;;;12.60;6.00;;;7.20;99.90;;;;;;5052957;28;20387;-63
2023/04/20 09:07:04;;;;;;;13.20;6.03;;;7.20;99.90;;;;;;5030564;28;20428;-63
2023/04/20 09:09:31;;;;;;;11.37;5.30;;;7.20;99.90;;;;;;5068030;28;20211;-64
2023/04/20 09:12:02;;;;;;;10.07;5.17;;;7.20;99.90;;;;;;5044082;28;21010;-64
2023/04/20 09:14:30;;;;;;;6.83;4.93;;;7.20;99.90;;;;;;5061409;28;20265;-64
2023/04/20 09:17:00;;;;;;;11.83;5.33;;;7.10;99.90;;;;;;5056273;28;20317;-64
2023/04/20 09:19:29;;;;;;;11.73;6.53;;;7.10;99.90;;;;;;5049103;28;20228;-63
2023/04/20 09:21:58;;;;;;;9.23;6.00;;;7.10;99.90;;;;;;5030674;28;20822;-64
2023/04/20 09:24:33;;;;;;;14.23;6.47;;;7.10;99.90;;;;;;5065516;28;20234;-64
2023/04/20 09:27:00;;;;;;;10.03;5.97;;;7.10;99.90;;;;;;5062542;28;20466;-64
2023/04/20 09:29:29;;;;;;;10.70;6.67;;;7.10;99.90;;;;;;5050486;28;20206;-64
2023/04/20 09:31:55;;;;;;;14.13;5.80;;;7.10;99.90;;;;;;5057656;28;20238;-64
2023/04/20 09:34:24;;;;;;;13.23;6.13;;;7.10;99.90;;;;;;5057206;28;20752;-64
2023/04/20 09:36:53;;;;;;;11.23;6.43;;;7.20;99.90;;;;;;5029349;28;20199;-63
2023/04/20 09:39:21;;;;;;;10.87;6.00;;;7.20;99.90;;;;;;5059954;28;20319;-63
2023/04/20 09:41:51;;;;;;;11.47;6.40;;;7.20;99.90;;;;;;5059217;28;20200;-64
2023/04/20 09:44:18;;;;;;;9.90;6.27;;;7.30;99.90;;;;;;5052773;28;20225;-64
2023/04/20 09:46:46;;;;;;;9.43;6.80;;;7.30;99.90;;;;;;5061600;28;20800;-64
2023/04/20 09:49:14;;;;;;;14.07;6.37;;;7.30;99.90;;;;;;5064475;28;20392;-64
2023/04/20 09:51:43;;;;;;;9.10;6.17;;;7.30;99.90;;;;;;5028951;28;20215;-64
2023/04/20 09:54:11;;;;;;;10.23;6.57;;;7.30;99.90;;;;;;5055384;28;20301;-64
2023/04/20 09:56:39;;;;;;;13.37;6.80;;;7.30;99.90;;;;;;5060707;28;20642;-64
2023/04/20 09:59:08;;;;;;;10.53;7.03;;;7.20;99.90;;;;;;5041644;28;20593;-64
2023/04/20 10:01:36;;;;;;;12.27;6.80;;;7.20;99.90;;;;;;5065538;28;20199;-63
2023/04/20 10:04:09;;;;;;;9.87;6.07;;;7.20;99.90;;;;;;5056979;28;20270;-64
2023/04/20 10:06:37;;;;;;;13.63;6.77;;;7.30;99.90;;;;;;5062396;28;20196;-64
2023/04/20 10:09:06;;;;;;;11.43;6.90;;;7.30;99.90;;;;;;5033009;28;20308;-63
2023/04/20 10:11:36;;;;;;;10.17;7.60;;;7.30;99.90;;;;;;5061692;28;20580;-63
2023/04/20 10:14:16;;;;;;;12.40;7.43;;;7.30;99.90;;;;;;5038783;28;20500;-64
2023/04/20 10:16:43;;;;;;;13.63;7.90;;;7.40;99.90;;;;;;5056918;28;20669;-63
2023/04/20 10:19:11;;;;;;;10.27;7.40;;;7.40;99.90;;;;;;5064214;28;21260;-63
2023/04/20 10:21:46;;;;;;;11.87;7.57;;;7.40;99.90;;;;;;5062497;28;20228;-64
2023/04/20 10:24:13;;;;;;;11.07;7.43;;;7.40;99.90;;;;;;5018230;28;20438;-63
2023/04/20 10:26:41;;;;;;;12.00;8.13;;;7.40;99.90;;;;;;5054971;28;20307;-64
2023/04/20 10:29:08;;;;;;;21.07;8.17;;;7.40;99.90;;;;;;5058256;28;20197;-64
2023/04/20 10:31:38;;;;;;;13.07;7.80;;;7.40;99.90;;;;;;5048432;28;20204;-63
2023/04/20 10:34:06;;;;;;;15.43;7.70;;;7.40;99.90;;;;;;5056778;28;20288;-64
2023/04/20 10:36:35;;;;;;;14.80;7.73;;;7.50;99.90;;;;;;5059174;28;20230;-64
2023/04/20 10:39:14;;;;;;;11.43;8.07;;;7.50;99.90;;;;;;5025567;28;21027;-64
2023/04/20 10:41:52;;;;;;;14.67;7.90;;;7.40;99.90;;;;;;5056714;28;20219;-63
2023/04/20 10:44:18;;;;;;;12.77;8.50;;;7.50;99.90;;;;;;5059807;28;20223;-64
2023/04/20 10:46:50;;;;;;;10.83;7.83;;;7.50;99.90;;;;;;5043529;28;20235;-64
2023/04/20 10:49:17;;;;;;;13.80;7.77;;;7.50;99.90;;;;;;5059814;28;20260;-64
2023/04/20 10:51:48;;;;;;;11.00;7.37;;;7.60;99.90;;;;;;5062016;28;21117;-64
2023/04/20 10:54:15;;;;;;;10.97;8.57;;;7.60;99.90;;;;;;5029073;28;21094;-64
2023/04/20 10:56:43;;;;;;;13.87;8.23;;;7.60;99.90;;;;;;5056196;28;20677;-64
2023/04/20 10:59:11;;;;;;;14.77;8.40;;;7.70;99.90;;;;;;5048064;28;20216;-63
2023/04/20 11:01:38;;;;;;;10.40;7.93;;;7.80;99.90;;;;;;5049061;28;20207;-64
2023/04/20 11:04:06;;;;;;;11.73;8.13;;;7.80;99.90;;;;;;5050129;28;20204;-64
2023/04/20 11:06:33;;;;;;;13.07;8.53;;;7.90;99.90;;;;;;5046611;28;20475;-64
2023/04/20 11:09:00;;;;;;;11.77;6.97;;;8.00;99.90;;;;;;5046795;28;20192;-64
2023/04/20 11:11:27;;;;;;;11.40;7.93;;;8.10;99.90;;;;;;5023288;28;21099;-64
2023/04/20 11:14:06;;;;;;;11.03;7.40;;;8.10;99.90;;;;;;5051610;28;20220;-64
2023/04/20 11:16:33;;;;;;;11.83;7.73;;;8.20;99.70;;;;;;5040534;28;20219;-64
2023/04/20 11:19:00;;;;;;;14.20;8.83;;;8.40;99.90;;;;;;5015903;22;20251;-64
2023/04/20 11:21:37;;;;;;;12.37;8.20;;;8.50;99.90;;;;;;5021406;28;20619;-64
2023/04/20 11:24:06;;;;;;;11.27;7.87;;;8.50;96.90;;;;;;5037459;28;20223;-64
2023/04/20 11:26:41;;;;;;;10.50;7.40;;;8.70;97.00;;;;;;5004105;28;20459;-64
2023/04/20 11:29:07;;;;;;;14.33;7.80;;;8.80;96.70;;;;;;5020311;28;20224;-64
2023/04/20 11:31:35;;;;;;;13.13;8.33;;;8.90;91.90;;;;;;5023658;28;20206;-64
2023/04/20 11:34:02;;;;;;;11.37;7.53;;;9.00;88.70;;;;;;5036716;28;20220;-64
2023/04/20 11:36:30;;;;;;;9.40;6.87;;;8.90;77.80;;;;;;5022170;28;20725;-64
2023/04/20 11:39:07;;;;;;;8.00;6.40;;;9.00;79.20;;;;;;5028015;28;20200;-65
2023/04/20 11:41:37;;;;;;;11.23;6.93;;;9.10;77.00;;;;;;4990757;28;21542;-64
2023/04/20 11:44:05;;;;;;;10.37;6.20;;;9.10;65.80;;;;;;5036769;28;20212;-64
2023/04/20 11:46:35;;;;;;;8.47;6.17;;;9.10;60.20;;;;;;5024876;28;20345;-64
2023/04/20 11:49:03;;;;;;;8.73;6.97;;;9.00;59.30;;;;;;5045008;28;20200;-64
2023/04/20 11:51:30;;;;;;;9.07;6.23;;;9.10;55.80;;;;;;5041278;28;20395;-64
2023/04/20 11:53:58;;;;;;;6.87;5.63;;;9.10;53.00;;;;;;5030576;28;20658;-64
2023/04/20 11:56:25;;;;;;;8.17;6.23;;;9.10;44.20;;;;;;5005562;28;20228;-65
2023/04/20 11:58:51;;;;;;;10.60;6.63;;;9.20;43.00;;;;;;5041868;28;20589;-64
2023/04/20 12:01:18;;;;;;;9.20;6.37;;;9.30;51.50;;;;;;5021488;28;20243;-64
2023/04/20 12:03:45;;;;;;;9.10;5.73;;;9.60;48.00;;;;;;5039780;28;20200;-64
2023/04/20 12:06:12;;;;;;;8.27;5.35;;;9.70;31.80;;;;;;5039865;28;20702;-64
2023/04/20 12:08:39;;;;;;;9.57;5.75;;;9.70;4.00;;;;;;5030562;28;21587;-64
2023/04/20 12:11:07;;;;;;;7.30;5.20;;;9.80;15.40;;;;;;5025151;28;20208;-64
2023/04/20 12:13:34;;;;;;;8.38;5.40;;;9.90;20.00;;;;;;5033609;28;20446;-64
2023/04/20 12:16:01;;;;;;;8.77;5.70;;;9.90;4.70;;;;;;5034957;28;20568;-64
2023/04/20 12:18:27;;;;;;;7.47;5.03;;;10.00;5.70;;;;;;5025482;28;20361;-64
2023/04/20 12:20:54;;;;;;;5.93;4.78;;;10.10;1.00;;;;;;5040457;28;20199;-64
2023/04/20 12:23:21;;;;;;;8.88;5.07;;;10.00;1.00;;;;;;5028251;28;20649;-64
2023/04/20 12:25:48;;;;;;;8.25;5.20;;;10.10;1.00;;;;;;5045224;28;20224;-64
2023/04/20 12:28:16;;;;;;;7.28;5.25;;;10.30;1.00;;;;;;5009670;28;20205;-64
2023/04/20 12:30:43;;;;;;;7.28;4.82;;;10.50;1.00;;;;;;5043853;28;20189;-64
2023/04/20 12:33:10;;;;;;;9.20;5.95;;;10.60;1.00;;;;;;5026307;28;20212;-64
2023/04/20 12:35:37;;;;;;;4.63;4.00;;;10.70;1.00;;;;;;5043515;28;20660;-63
2023/04/20 12:38:04;;;;;;;7.60;5.05;;;10.60;1.00;;;;;;5036071;28;20695;-64
2023/04/20 12:40:31;;;;;;;5.78;4.80;;;10.70;1.00;;;;;;5028942;28;20197;-64
2023/04/20 12:42:57;;;;;;;7.00;5.35;;;10.70;1.00;;;;;;5016025;28;20209;-64
2023/04/20 12:45:25;;;;;;;7.40;5.30;;;10.60;1.00;;;;;;5048325;28;20866;-64
2023/04/20 12:47:52;;;;;;;8.27;5.20;;;10.70;1.00;;;;;;5031899;28;20208;-64
2023/04/20 12:50:19;;;;;;;7.05;5.18;;;10.70;1.00;;;;;;5040063;28;20197;-64
2023/04/20 12:52:46;;;;;;;6.45;5.13;;;10.90;1.00;;;;;;5044960;28;20202;-63
2023/04/20 12:55:13;;;;;;;6.32;5.20;;;10.90;99.90;;;;;;5035356;28;20201;-64
2023/04/20 12:57:40;;;;;;;5.78;4.85;;;11.00;99.90;;;;;;5039949;28;20193;-64